Time;durP1;ratioP1;P1;durP2;ratioP2;P2;SDS_P1;SDS_P2;PMS_P1;PMS_P2;Temp;Humidity;BMP_temperature;BMP_pressure;BME280_temperature;BME280_humidity;BME280_pressure;Samples;Min_cycle;Max_cycle;Signal;HPM_P1;HPM_P2
2021/05/29 00:01:29;;;;;;;1999.90;999.90;;;13.70;99.90;;;;;;5075212;28;20260;-67
2021/05/29 00:03:55;;;;;;;1999.90;999.90;;;13.70;99.90;;;;;;5075162;28;20483;-67
2021/05/29 00:06:20;;;;;;;1999.90;999.90;;;13.70;99.90;;;;;;5074702;28;20260;-66
2021/05/29 00:08:46;;;;;;;1999.90;999.90;;;13.70;99.90;;;;;;5075201;28;20175;-67
2021/05/29 00:11:12;;;;;;;1999.90;999.90;;;13.70;99.90;;;;;;5075133;28;20218;-66
2021/05/29 00:13:40;;;;;;;1999.90;999.90;;;13.70;99.90;;;;;;5074825;28;20459;-66
2021/05/29 00:16:08;;;;;;;1999.90;999.90;;;13.60;99.90;;;;;;5074501;28;20432;-67
2021/05/29 00:18:34;;;;;;;1999.90;999.90;;;13.60;99.90;;;;;;5074795;28;20403;-67
2021/05/29 00:20:59;;;;;;;1999.90;999.90;;;13.60;99.90;;;;;;5074732;28;20806;-67
2021/05/29 00:23:25;;;;;;;1999.90;999.90;;;13.60;99.90;;;;;;5075001;28;20171;-67
2021/05/29 00:25:50;;;;;;;1999.90;999.90;;;13.50;99.90;;;;;;5073998;28;20183;-67
2021/05/29 00:28:16;;;;;;;1999.90;999.90;;;13.40;99.90;;;;;;5074728;28;20176;-67
2021/05/29 00:30:44;;;;;;;1999.90;999.90;;;13.40;99.90;;;;;;5074650;28;20175;-67
2021/05/29 00:33:09;;;;;;;1999.90;999.90;;;13.40;99.90;;;;;;5074474;28;20479;-67
2021/05/29 00:35:35;;;;;;;1999.90;999.90;;;13.30;99.90;;;;;;5074298;28;20404;-67
2021/05/29 00:38:02;;;;;;;1999.90;999.90;;;13.20;99.90;;;;;;5074927;28;20270;-66
2021/05/29 00:40:28;;;;;;;1999.90;999.90;;;13.20;99.90;;;;;;5074730;28;20167;-67
2021/05/29 00:42:54;;;;;;;1999.90;999.90;;;13.10;99.90;;;;;;5074378;28;20969;-67
2021/05/29 00:45:20;;;;;;;1999.90;999.90;;;13.00;99.90;;;;;;5074309;28;20644;-67
2021/05/29 00:47:45;;;;;;;1999.90;999.90;;;13.00;99.90;;;;;;5074362;28;20526;-66
2021/05/29 00:50:13;;;;;;;1999.90;999.90;;;12.90;99.90;;;;;;5074567;28;20488;-67
2021/05/29 00:52:39;;;;;;;1999.90;999.90;;;12.90;99.90;;;;;;5074005;28;20206;-67
2021/05/29 00:55:08;;;;;;;1999.90;999.90;;;12.80;99.90;;;;;;5074377;28;20435;-67
2021/05/29 00:57:38;;;;;;;1999.90;999.90;;;12.70;99.90;;;;;;5074232;28;20430;-66
2021/05/29 01:00:05;;;;;;;1999.90;999.90;;;12.70;99.90;;;;;;5074163;28;20444;-67
2021/05/29 01:02:31;;;;;;;1999.90;999.90;;;12.70;99.90;;;;;;5073599;28;20454;-66
2021/05/29 01:04:56;;;;;;;1999.90;999.90;;;12.60;99.90;;;;;;5073384;28;20399;-66
2021/05/29 01:07:22;;;;;;;1999.90;999.90;;;12.50;99.90;;;;;;5073601;28;20584;-66
2021/05/29 01:09:48;;;;;;;1999.90;999.90;;;12.50;99.90;;;;;;5073584;28;20178;-66
2021/05/29 01:12:18;;;;;;;1999.90;999.90;;;12.50;99.90;;;;;;5073513;28;20168;-66
2021/05/29 01:14:53;;;;;;;1999.90;999.90;;;12.50;99.90;;;;;;5073397;28;20183;-66
2021/05/29 01:17:19;;;;;;;1999.90;999.90;;;12.50;99.90;;;;;;5073637;28;20478;-66
2021/05/29 01:19:45;;;;;;;1999.90;999.90;;;12.40;99.90;;;;;;5073364;28;20390;-66
2021/05/29 01:22:11;;;;;;;1999.90;999.90;;;12.40;99.90;;;;;;5073464;28;20434;-66
2021/05/29 01:24:38;;;;;;;1999.90;999.90;;;12.30;99.90;;;;;;5073221;28;20172;-66
2021/05/29 01:27:05;;;;;;;1999.90;999.90;;;12.20;99.90;;;;;;5072951;28;20479;-66
2021/05/29 01:29:31;;;;;;;1999.90;999.90;;;12.30;99.90;;;;;;5073087;28;20517;-66
2021/05/29 01:32:02;;;;;;;1999.90;999.90;;;12.20;99.90;;;;;;5073365;28;20488;-66
2021/05/29 01:34:33;;;;;;;1999.90;999.90;;;12.20;99.90;;;;;;5073176;28;20461;-66
2021/05/29 01:37:03;;;;;;;1999.90;999.90;;;12.20;99.90;;;;;;5071932;28;20427;-66
2021/05/29 01:39:30;;;;;;;1999.90;999.90;;;12.10;99.90;;;;;;5072995;28;20455;-66
2021/05/29 01:41:57;;;;;;;1999.90;999.90;;;12.00;99.90;;;;;;5072872;28;20410;-66
2021/05/29 01:44:23;;;;;;;1999.90;999.90;;;12.00;99.90;;;;;;5072922;28;20444;-66
2021/05/29 01:46:51;;;;;;;1999.90;999.90;;;11.90;99.90;;;;;;5072438;28;20461;-66
2021/05/29 01:49:17;;;;;;;1999.90;999.90;;;11.90;99.90;;;;;;5072929;28;20801;-66
2021/05/29 01:51:43;;;;;;;1999.90;999.90;;;11.80;99.90;;;;;;5072816;28;20405;-66
2021/05/29 01:54:09;;;;;;;1999.90;999.90;;;11.80;99.90;;;;;;5072561;28;21020;-66
2021/05/29 01:56:35;;;;;;;1999.90;999.90;;;11.80;99.90;;;;;;5072218;28;20426;-66
2021/05/29 01:59:00;;;;;;;1999.90;999.90;;;11.80;99.90;;;;;;5072606;28;20412;-66
2021/05/29 02:01:26;;;;;;;1999.90;999.90;;;11.70;99.90;;;;;;5072602;28;20167;-66
2021/05/29 02:03:52;;;;;;;1999.90;999.90;;;11.60;99.90;;;;;;5072626;28;20225;-66
2021/05/29 02:06:18;;;;;;;1999.90;999.90;;;11.60;99.90;;;;;;5072217;28;20191;-67
2021/05/29 02:08:43;;;;;;;1999.90;999.90;;;11.60;99.90;;;;;;5072539;28;20538;-66
2021/05/29 02:11:09;;;;;;;1999.90;999.90;;;11.50;99.90;;;;;;5072374;28;20175;-66
2021/05/29 02:13:37;;;;;;;1999.90;999.90;;;11.20;99.90;;;;;;5072489;28;21041;-66
2021/05/29 02:16:11;;;;;;;1999.90;999.90;;;11.10;99.90;;;;;;5072055;28;20301;-66
2021/05/29 02:18:41;;;;;;;1999.90;999.90;;;11.00;99.90;;;;;;5072436;28;20409;-66
2021/05/29 02:21:13;;;;;;;1999.90;999.90;;;10.90;99.90;;;;;;5072338;28;20398;-66
2021/05/29 02:23:42;;;;;;;1999.90;999.90;;;10.90;99.90;;;;;;5072182;28;20448;-66
2021/05/29 02:26:12;;;;;;;1999.90;999.90;;;10.90;99.90;;;;;;5071999;28;20796;-66
2021/05/29 02:28:40;;;;;;;1999.90;999.90;;;11.00;99.90;;;;;;5072325;28;20412;-66
2021/05/29 02:31:06;;;;;;;1999.90;999.90;;;11.00;99.90;;;;;;5072184;28;20421;-66
2021/05/29 02:33:33;;;;;;;1999.90;999.90;;;11.00;99.90;;;;;;5072088;28;20455;-66
2021/05/29 02:35:58;;;;;;;1999.90;999.90;;;11.00;99.90;;;;;;5071707;28;20409;-66
2021/05/29 02:38:25;;;;;;;1999.90;999.90;;;10.90;99.90;;;;;;5072301;28;20475;-66
2021/05/29 02:40:51;;;;;;;1999.90;999.90;;;10.90;99.90;;;;;;5075454;28;20185;-66
2021/05/29 02:43:17;;;;;;;1999.90;999.90;;;10.90;99.90;;;;;;5075027;28;20443;-66
2021/05/29 02:45:43;;;;;;;1999.90;999.90;;;10.90;99.90;;;;;;5072688;28;20670;-66
2021/05/29 02:48:13;;;;;;;1999.90;999.90;;;11.00;99.90;;;;;;5071715;28;21033;-66
2021/05/29 02:50:40;;;;;;;1999.90;999.90;;;10.80;99.90;;;;;;5071927;28;20405;-66
2021/05/29 02:53:07;;;;;;;1999.90;999.90;;;10.80;99.90;;;;;;5071795;28;20965;-66
2021/05/29 02:55:34;;;;;;;1999.90;999.90;;;10.80;99.90;;;;;;5071955;28;20507;-66
2021/05/29 02:58:00;;;;;;;1999.90;999.90;;;10.70;99.90;;;;;;5071902;28;20432;-66
2021/05/29 03:00:33;;;;;;;1999.90;999.90;;;10.70;99.90;;;;;;5071951;28;20412;-66
2021/05/29 03:03:00;;;;;;;1999.90;999.90;;;10.60;99.90;;;;;;5072060;28;20397;-66
2021/05/29 03:05:26;;;;;;;1999.90;999.90;;;10.60;99.90;;;;;;5071737;28;21050;-66
2021/05/29 03:07:52;;;;;;;1999.90;999.90;;;10.60;99.90;;;;;;5071868;28;20451;-66
2021/05/29 03:10:22;;;;;;;1999.90;999.90;;;10.60;99.90;;;;;;5073975;28;20800;-66
2021/05/29 03:12:49;;;;;;;1999.90;999.90;;;10.50;99.90;;;;;;5073733;28;20211;-66
2021/05/29 03:15:17;;;;;;;1999.90;999.90;;;10.40;99.90;;;;;;5073522;28;20437;-66
2021/05/29 03:17:43;;;;;;;1999.90;999.90;;;10.30;99.90;;;;;;5073657;28;20821;-66
2021/05/29 03:20:12;;;;;;;1999.90;999.90;;;10.20;99.90;;;;;;5073436;28;20409;-66
2021/05/29 03:22:38;;;;;;;1999.90;999.90;;;10.20;99.90;;;;;;5072883;28;20507;-66
2021/05/29 03:25:05;;;;;;;1999.90;999.90;;;10.20;99.90;;;;;;5072832;28;20842;-66
2021/05/29 03:27:31;;;;;;;1999.90;999.90;;;10.10;99.90;;;;;;5073150;28;20507;-66
2021/05/29 03:29:57;;;;;;;1999.90;999.90;;;10.10;99.90;;;;;;5073116;28;20412;-66
2021/05/29 03:32:23;;;;;;;1999.90;999.90;;;10.00;99.90;;;;;;5072991;28;20503;-66
2021/05/29 03:34:48;;;;;;;1999.90;999.90;;;10.00;99.90;;;;;;5072705;28;20231;-66
2021/05/29 03:37:14;;;;;;;1999.90;999.90;;;9.90;99.90;;;;;;5072947;28;20714;-66
2021/05/29 03:39:40;;;;;;;1999.90;999.90;;;10.00;99.90;;;;;;5072487;28;20632;-66
2021/05/29 03:42:06;;;;;;;1999.90;999.90;;;10.00;99.90;;;;;;5071903;28;20165;-66
2021/05/29 03:44:32;;;;;;;1999.90;999.90;;;10.00;99.90;;;;;;5071400;28;20415;-66
2021/05/29 03:46:58;;;;;;;1999.90;999.90;;;10.00;99.90;;;;;;5071025;28;20945;-66
2021/05/29 03:49:23;;;;;;;1999.90;999.90;;;10.00;99.90;;;;;;5071359;28;20308;-66
2021/05/29 03:51:49;;;;;;;1999.90;999.90;;;10.00;99.90;;;;;;5071293;28;20639;-66
2021/05/29 03:54:15;;;;;;;1999.90;999.90;;;10.00;99.90;;;;;;5071125;28;20303;-66
2021/05/29 03:56:40;;;;;;;1999.90;999.90;;;10.00;99.90;;;;;;5070943;28;20185;-66
2021/05/29 03:59:12;;;;;;;1999.90;999.90;;;9.90;99.90;;;;;;5071283;28;20174;-66
2021/05/29 04:01:38;;;;;;;1999.90;999.90;;;10.00;99.90;;;;;;5073903;28;20256;-66
2021/05/29 04:04:06;;;;;;;1999.90;999.90;;;9.90;99.90;;;;;;5074846;28;20523;-66
2021/05/29 04:06:31;;;;;;;1999.90;999.90;;;10.00;99.90;;;;;;5074590;28;20431;-66
2021/05/29 04:08:57;;;;;;;1999.90;999.90;;;9.90;99.90;;;;;;5034682;23;20494;-70
2021/05/29 04:11:22;;;;;;;1999.90;999.90;;;9.90;99.90;;;;;;5013061;28;20272;-69
2021/05/29 04:13:48;;;;;;;1999.90;999.90;;;9.90;99.90;;;;;;4997309;28;20204;-70
2021/05/29 04:16:13;;;;;;;1999.90;999.90;;;9.90;99.90;;;;;;4999228;28;20169;-69
2021/05/29 04:18:39;;;;;;;1999.90;999.90;;;10.00;99.90;;;;;;4993994;28;20199;-70
2021/05/29 04:21:05;;;;;;;1999.90;999.90;;;10.10;99.90;;;;;;4995311;28;20180;-70
2021/05/29 04:23:30;;;;;;;1999.90;999.90;;;10.10;99.90;;;;;;4995161;28;20173;-70
2021/05/29 04:25:56;;;;;;;1999.90;999.90;;;10.20;99.90;;;;;;4994879;28;20315;-69
2021/05/29 04:28:22;;;;;;;1999.90;999.90;;;10.30;99.90;;;;;;4995036;28;20201;-69
2021/05/29 04:30:48;;;;;;;1999.90;999.90;;;10.30;99.90;;;;;;4995029;28;20173;-69
2021/05/29 04:33:13;;;;;;;1999.90;999.90;;;10.30;99.90;;;;;;4994936;28;20820;-70
2021/05/29 04:35:39;;;;;;;1999.90;999.90;;;10.40;99.90;;;;;;4994756;28;20167;-70
2021/05/29 04:38:05;;;;;;;1999.90;999.90;;;10.40;99.90;;;;;;4998777;28;20602;-70
2021/05/29 04:40:30;;;;;;;1999.90;999.90;;;10.40;99.90;;;;;;4997030;28;20246;-69
2021/05/29 04:42:59;;;;;;;1999.90;999.90;;;10.50;99.90;;;;;;4998398;28;20164;-70
2021/05/29 04:45:25;;;;;;;1999.90;999.90;;;10.50;99.90;;;;;;4999518;28;20227;-70
2021/05/29 04:47:53;;;;;;;1999.90;999.90;;;10.60;99.90;;;;;;4995620;28;20913;-70
2021/05/29 04:50:19;;;;;;;1999.90;999.90;;;10.70;99.90;;;;;;4994766;28;20408;-70
2021/05/29 04:52:45;;;;;;;1999.90;999.90;;;10.70;99.90;;;;;;4994597;28;20822;-69
2021/05/29 04:55:11;;;;;;;1999.90;999.90;;;10.80;99.90;;;;;;4994282;28;20443;-69
2021/05/29 04:57:37;;;;;;;1999.90;999.90;;;10.80;99.90;;;;;;4994533;28;20765;-70
2021/05/29 05:00:06;;;;;;;1999.90;999.90;;;10.90;99.90;;;;;;4994463;28;20404;-70
2021/05/29 05:02:32;;;;;;;1999.90;999.90;;;11.00;99.90;;;;;;4994487;28;20408;-70
2021/05/29 05:04:57;;;;;;;1999.90;999.90;;;11.00;99.90;;;;;;4995466;28;20825;-70
2021/05/29 05:07:23;;;;;;;1999.90;999.90;;;11.10;99.90;;;;;;4995359;28;20504;-70
2021/05/29 05:09:48;;;;;;;1999.90;999.90;;;11.20;99.90;;;;;;4994597;28;20196;-70
2021/05/29 05:12:14;;;;;;;1999.90;999.90;;;11.30;99.90;;;;;;4994243;28;20173;-71
2021/05/29 05:14:40;;;;;;;1999.90;999.90;;;11.30;99.90;;;;;;4994079;28;20229;-70
2021/05/29 05:17:05;;;;;;;1999.90;999.90;;;11.30;99.90;;;;;;4993915;28;20173;-70
2021/05/29 05:19:31;;;;;;;1999.90;999.90;;;11.40;99.90;;;;;;4994167;28;20166;-70
2021/05/29 05:21:57;;;;;;;1999.90;999.90;;;11.40;99.90;;;;;;4994064;28;20242;-70
2021/05/29 05:24:23;;;;;;;1999.90;999.90;;;11.40;99.90;;;;;;4996584;28;20173;-70
2021/05/29 05:26:49;;;;;;;1999.90;999.90;;;11.50;99.90;;;;;;4995428;28;20423;-69
2021/05/29 05:29:15;;;;;;;1999.90;999.90;;;11.60;99.90;;;;;;4993961;28;20948;-69
2021/05/29 05:31:42;;;;;;;1999.90;999.90;;;11.60;99.90;;;;;;4993941;28;20265;-70
2021/05/29 05:34:09;;;;;;;1999.90;999.90;;;11.60;99.90;;;;;;4993820;28;20205;-71
2021/05/29 05:36:39;;;;;;;1999.90;999.90;;;11.60;99.90;;;;;;4993515;28;20415;-69
2021/05/29 05:39:08;;;;;;;1999.90;999.90;;;11.70;99.90;;;;;;4993978;28;20453;-69
2021/05/29 05:41:35;;;;;;;1999.90;999.90;;;11.80;99.90;;;;;;4993653;28;20444;-70
2021/05/29 05:44:00;;;;;;;1999.90;999.90;;;11.90;99.90;;;;;;4993754;28;20871;-69
2021/05/29 05:46:26;;;;;;;1999.90;999.90;;;11.90;99.90;;;;;;4995636;28;20416;-70
2021/05/29 05:48:52;;;;;;;1999.90;999.90;;;12.00;99.90;;;;;;4999719;28;20215;-70
2021/05/29 05:51:18;;;;;;;1999.90;999.90;;;12.10;99.90;;;;;;4998282;28;20253;-70
2021/05/29 05:53:44;;;;;;;1999.90;999.90;;;12.20;99.90;;;;;;4993429;28;20552;-69
2021/05/29 05:56:10;;;;;;;1999.90;999.90;;;12.20;99.90;;;;;;4991814;28;20425;-70
2021/05/29 05:58:37;;;;;;;1999.90;999.90;;;12.30;99.90;;;;;;4993465;28;20192;-70
2021/05/29 06:01:05;;;;;;;1999.90;999.90;;;12.40;99.90;;;;;;4993356;28;20170;-69
2021/05/29 06:03:31;;;;;;;1999.90;999.90;;;12.50;99.90;;;;;;4993435;28;20413;-69
2021/05/29 06:05:57;;;;;;;1999.90;999.90;;;12.60;99.90;;;;;;4993017;28;20496;-69
2021/05/29 06:08:23;;;;;;;1999.90;999.90;;;12.60;99.90;;;;;;4993092;28;20539;-70
2021/05/29 06:10:50;;;;;;;1999.90;999.90;;;12.70;99.90;;;;;;4993219;28;20169;-69
2021/05/29 06:13:32;;;;;;;1999.90;999.90;;;12.80;99.90;;;;;;4995058;28;20961;-70
2021/05/29 06:19:12;;;;;;;1999.90;999.90;;;13.00;99.90;;;;;;4952932;29;20456;-70
2021/05/29 06:21:43;;;;;;;1999.90;999.90;;;13.10;99.90;;;;;;4953220;29;20402;-70
2021/05/29 06:24:09;;;;;;;1999.90;999.90;;;13.20;99.90;;;;;;4975280;28;20441;-70
2021/05/29 06:26:35;;;;;;;1999.90;999.90;;;13.40;99.90;;;;;;4993043;28;20436;-70
2021/05/29 06:29:00;;;;;;;1999.90;999.90;;;13.40;99.90;;;;;;4993374;28;20686;-70
2021/05/29 06:31:26;;;;;;;1999.90;999.90;;;13.50;99.90;;;;;;4993563;28;20244;-71
2021/05/29 06:33:51;;;;;;;1999.90;999.90;;;13.60;99.90;;;;;;4992802;28;20584;-69
2021/05/29 06:36:17;;;;;;;1999.90;999.90;;;13.70;99.90;;;;;;4992551;28;20171;-69
2021/05/29 06:38:42;;;;;;;1999.90;999.90;;;13.60;99.90;;;;;;4992608;28;20897;-69
2021/05/29 06:41:08;;;;;;;1999.90;999.90;;;13.60;99.90;;;;;;4992680;28;20167;-69
2021/05/29 06:43:34;;;;;;;1999.90;999.90;;;13.60;99.90;;;;;;4992760;28;20179;-69
2021/05/29 06:45:59;;;;;;;1999.90;999.90;;;13.70;99.90;;;;;;4992354;28;20168;-72
2021/05/29 06:48:25;;;;;;;1999.90;999.90;;;13.80;99.90;;;;;;4992566;28;20190;-69
2021/05/29 06:50:56;;;;;;;1999.90;999.90;;;13.80;99.90;;;;;;4992712;28;20165;-70
2021/05/29 06:53:41;;;;;;;1999.90;999.90;;;13.80;99.90;;;;;;4992582;28;20449;-70
2021/05/29 06:58:51;;;;;;;1999.90;999.90;;;14.00;99.90;;;;;;4996118;28;20470;-71
2021/05/29 07:01:24;;;;;;;1999.90;999.90;;;14.10;99.90;;;;;;4995469;28;20411;-71
2021/05/29 07:03:51;;;;;;;1999.90;999.90;;;14.20;99.90;;;;;;4996556;28;20419;-70
2021/05/29 07:06:17;;;;;;;1999.90;999.90;;;14.40;99.90;;;;;;4996253;28;20409;-71
2021/05/29 07:08:43;;;;;;;1999.90;999.90;;;14.50;99.90;;;;;;4994636;28;20499;-70
2021/05/29 07:11:09;;;;;;;1999.90;999.90;;;14.50;99.90;;;;;;4993014;28;20419;-70
2021/05/29 07:13:35;;;;;;;1999.90;999.90;;;14.40;99.90;;;;;;4992392;28;20511;-70
2021/05/29 07:16:01;;;;;;;1999.90;999.90;;;14.30;99.90;;;;;;4992215;28;20485;-69
2021/05/29 07:18:39;;;;;;;1999.90;999.90;;;14.40;99.90;;;;;;4992283;28;20264;-70
2021/05/29 07:21:05;;;;;;;1999.90;999.90;;;14.30;99.90;;;;;;4992033;28;20886;-70
2021/05/29 07:23:30;;;;;;;1999.90;999.90;;;14.30;99.90;;;;;;4992001;28;20447;-70
2021/05/29 07:25:56;;;;;;;1999.90;999.90;;;14.30;99.90;;;;;;4991894;28;20305;-69
2021/05/29 07:28:21;;;;;;;1999.90;999.90;;;14.40;99.90;;;;;;4992271;28;20199;-70
2021/05/29 07:30:49;;;;;;;1999.90;999.90;;;14.50;99.90;;;;;;4992297;28;20659;-70
2021/05/29 07:33:15;;;;;;;1999.90;999.90;;;14.60;99.90;;;;;;4992135;28;20195;-70
2021/05/29 07:35:41;;;;;;;1999.90;999.90;;;14.70;99.90;;;;;;4993350;28;20478;-70
2021/05/29 07:38:07;;;;;;;1999.90;999.90;;;14.70;99.90;;;;;;4995892;28;20183;-70
2021/05/29 07:40:33;;;;;;;1999.90;999.90;;;14.80;99.90;;;;;;4995979;28;20488;-70
2021/05/29 07:42:59;;;;;;;1999.90;999.90;;;14.80;99.90;;;;;;4995862;28;20435;-71
2021/05/29 07:45:26;;;;;;;1999.90;999.90;;;14.90;99.90;;;;;;4995628;28;20274;-70
2021/05/29 07:47:52;;;;;;;1999.90;999.90;;;14.90;99.90;;;;;;4995738;28;20436;-70
2021/05/29 07:50:17;;;;;;;1999.90;999.90;;;15.10;99.90;;;;;;4995810;28;20408;-70
2021/05/29 07:52:44;;;;;;;1999.90;999.90;;;15.30;99.90;;;;;;4995696;28;20173;-71
2021/05/29 07:55:10;;;;;;;1999.90;999.90;;;15.40;99.90;;;;;;4995412;28;20187;-70
2021/05/29 07:57:36;;;;;;;1999.90;999.90;;;15.60;99.90;;;;;;4995658;28;20428;-70
2021/05/29 08:00:09;;;;;;;1999.90;999.90;;;15.80;99.90;;;;;;4995712;28;20967;-70
2021/05/29 08:02:34;;;;;;;1999.90;999.90;;;15.90;99.90;;;;;;4995687;28;20179;-70
2021/05/29 08:05:00;;;;;;;1999.90;999.90;;;15.90;99.90;;;;;;4995326;28;20401;-70
2021/05/29 08:07:26;;;;;;;1999.90;999.90;;;16.00;99.90;;;;;;4995274;28;20200;-70
2021/05/29 08:09:51;;;;;;;1999.90;999.90;;;16.10;99.90;;;;;;4995473;28;20205;-71
2021/05/29 08:12:18;;;;;;;1999.90;999.90;;;16.30;99.90;;;;;;4995466;28;20202;-71
2021/05/29 08:14:43;;;;;;;1999.90;999.90;;;16.40;99.90;;;;;;4996934;28;20817;-71
2021/05/29 08:17:09;;;;;;;1999.90;999.90;;;16.50;99.90;;;;;;4998268;28;20421;-71
2021/05/29 08:19:35;;;;;;;1999.90;999.90;;;16.40;99.90;;;;;;4998268;28;20172;-71
2021/05/29 08:22:00;;;;;;;1999.90;999.90;;;16.50;99.90;;;;;;4997963;28;20233;-72
2021/05/29 08:24:26;;;;;;;1999.90;999.90;;;16.60;99.90;;;;;;4997700;28;20203;-71
2021/05/29 08:26:52;;;;;;;1999.90;999.90;;;16.70;99.90;;;;;;4995265;28;20181;-70
2021/05/29 08:29:18;;;;;;;1999.90;999.90;;;16.90;99.90;;;;;;4995517;28;20205;-71
2021/05/29 08:31:44;;;;;;;1999.90;999.90;;;17.00;99.90;;;;;;4995346;28;20412;-72
2021/05/29 08:34:10;;;;;;;1999.90;999.90;;;17.00;99.90;;;;;;4995235;28;20193;-72
2021/05/29 08:36:40;;;;;;;1999.90;999.90;;;17.20;99.90;;;;;;4994854;28;20509;-70
2021/05/29 08:39:07;;;;;;;1999.90;999.90;;;17.30;99.90;;;;;;4995062;28;20848;-70
2021/05/29 08:41:33;;;;;;;1999.90;999.90;;;17.30;99.90;;;;;;4994898;28;20421;-72
2021/05/29 08:43:59;;;;;;;1999.90;999.90;;;17.40;99.90;;;;;;4988198;28;20422;-71
2021/05/29 08:46:25;;;;;;;1999.90;999.90;;;17.50;99.90;;;;;;4979855;28;20425;-71
2021/05/29 08:48:52;;;;;;;1999.90;999.90;;;17.70;99.90;;;;;;4976812;28;20225;-69
2021/05/29 08:51:18;;;;;;;1999.90;999.90;;;17.80;99.90;;;;;;4975351;28;20414;-70
2021/05/29 08:53:50;;;;;;;1999.90;999.90;;;17.90;99.90;;;;;;4977742;28;20465;-71
2021/05/29 08:56:17;;;;;;;1999.90;999.90;;;18.00;99.90;;;;;;4979284;28;20420;-71
2021/05/29 08:58:43;;;;;;;1999.90;999.90;;;18.00;99.90;;;;;;4981830;28;20945;-71
2021/05/29 09:01:11;;;;;;;1999.90;999.90;;;18.00;99.90;;;;;;4981722;28;20416;-69
2021/05/29 09:03:45;;;;;;;1999.90;999.90;;;18.10;99.90;;;;;;4982155;28;20417;-70
2021/05/29 09:06:33;;;;;;;1999.90;999.90;;;18.20;99.90;;;;;;4974330;28;20882;-70
2021/05/29 09:09:02;;;;;;;1999.90;999.90;;;18.40;99.90;;;;;;4966983;28;20465;-72
2021/05/29 09:11:41;;;;;;;1999.90;999.90;;;18.50;99.90;;;;;;4974612;28;20467;-72
2021/05/29 09:17:09;;;;;;;1999.90;999.90;;;18.60;99.90;;;;;;4973572;28;20403;-70
2021/05/29 09:20:07;;;;;;;1999.90;999.90;;;18.40;99.90;;;;;;4973648;28;20442;-70
2021/05/29 09:22:37;;;;;;;1999.90;999.90;;;18.40;99.90;;;;;;4973802;28;20845;-70
2021/05/29 09:25:17;;;;;;;1999.90;999.90;;;18.30;99.90;;;;;;4973884;28;20461;-70
2021/05/29 09:28:00;;;;;;;1999.90;999.90;;;18.50;99.90;;;;;;4973798;28;20432;-70
2021/05/29 09:30:51;;;;;;;1999.90;999.90;;;18.50;99.90;;;;;;4974124;28;20501;-70
2021/05/29 09:33:21;;;;;;;1999.90;999.90;;;18.60;99.90;;;;;;4974082;28;20795;-70
2021/05/29 09:35:54;;;;;;;1999.90;999.90;;;18.50;99.90;;;;;;4973686;28;20424;-70
2021/05/29 09:38:20;;;;;;;1999.90;999.90;;;18.50;99.90;;;;;;4973962;28;20418;-71
2021/05/29 09:40:55;;;;;;;1999.90;999.90;;;18.70;99.90;;;;;;4973989;28;20414;-70
2021/05/29 09:43:21;;;;;;;1999.90;999.90;;;19.00;99.90;;;;;;4973685;28;20404;-70
2021/05/29 09:46:01;;;;;;;1999.90;999.90;;;19.30;99.90;;;;;;4973504;28;20417;-70
2021/05/29 09:48:27;;;;;;;1999.90;999.90;;;19.30;99.90;;;;;;4973465;28;20805;-70
2021/05/29 09:51:00;;;;;;;1999.90;999.90;;;19.30;99.90;;;;;;4973618;28;20880;-70
2021/05/29 09:53:37;;;;;;;1999.90;999.90;;;19.50;99.90;;;;;;4973595;28;20933;-70
2021/05/29 09:56:04;;;;;;;1999.90;999.90;;;19.70;99.90;;;;;;4973653;28;20816;-70
2021/05/29 09:58:51;;;;;;;1999.90;999.90;;;19.80;99.90;;;;;;4972979;28;20434;-70
2021/05/29 10:01:50;;;;;;;1999.90;999.90;;;20.00;99.90;;;;;;4973628;28;20408;-70
2021/05/29 10:04:40;;;;;;;1999.90;999.90;;;20.40;99.90;;;;;;4973187;28;20785;-72
2021/05/29 10:07:07;;;;;;;1999.90;999.90;;;20.50;99.90;;;;;;4973214;28;20496;-72
2021/05/29 10:09:33;;;;;;;1999.90;999.90;;;20.60;99.90;;;;;;4973750;28;20439;-70
2021/05/29 10:12:00;;;;;;;1999.90;999.90;;;20.70;99.90;;;;;;4968907;28;20931;-71
2021/05/29 10:14:27;;;;;;;1999.90;999.90;;;20.80;99.90;;;;;;4971264;28;20456;-70
2021/05/29 10:16:54;;;;;;;1999.90;999.90;;;20.70;99.90;;;;;;4971076;28;20432;-70
2021/05/29 10:19:21;;;;;;;1999.90;999.90;;;20.40;99.90;;;;;;4971521;28;20515;-70
2021/05/29 10:21:48;;;;;;;1999.90;999.90;;;19.80;99.90;;;;;;4971621;28;20773;-70
2021/05/29 10:24:15;;;;;;;1999.90;999.90;;;19.70;99.90;;;;;;4971360;28;20438;-71
2021/05/29 10:26:43;;;;;;;1999.90;999.90;;;20.00;99.90;;;;;;4970439;28;20432;-70
2021/05/29 10:29:09;;;;;;;1999.90;999.90;;;19.90;99.90;;;;;;4971167;28;20494;-70
2021/05/29 10:31:36;;;;;;;1999.90;999.90;;;20.00;99.90;;;;;;4971356;28;20549;-71
2021/05/29 10:34:03;;;;;;;1999.90;999.90;;;20.10;99.90;;;;;;4970925;28;20465;-71
2021/05/29 10:36:38;;;;;;;1999.90;999.90;;;20.10;99.90;;;;;;4971155;28;20506;-71
2021/05/29 10:39:22;;;;;;;1999.90;999.90;;;20.50;99.90;;;;;;4972825;28;20465;-72
2021/05/29 10:41:56;;;;;;;1999.90;999.90;;;20.90;99.90;;;;;;4971744;28;20430;-73
2021/05/29 10:44:26;;;;;;;1999.90;999.90;;;21.30;99.90;;;;;;4971180;28;20426;-72
2021/05/29 10:47:18;;;;;;;1999.90;999.90;;;21.50;99.90;;;;;;4970751;28;20423;-72
2021/05/29 10:49:57;;;;;;;1999.90;999.90;;;21.60;99.90;;;;;;4970727;28;20584;-72
2021/05/29 10:52:33;;;;;;;1999.90;999.90;;;21.50;99.90;;;;;;4971379;28;20412;-72
2021/05/29 10:55:08;;;;;;;1999.90;999.90;;;21.00;99.90;;;;;;4970689;28;20464;-72
2021/05/29 10:58:01;;;;;;;1999.90;999.90;;;20.90;99.90;;;;;;4971158;28;20433;-72
2021/05/29 11:00:39;;;;;;;1999.90;999.90;;;21.10;99.90;;;;;;4971349;28;20413;-72
2021/05/29 11:03:18;;;;;;;1999.90;999.90;;;21.30;99.90;;;;;;4970743;28;20792;-72
2021/05/29 11:05:47;;;;;;;1999.90;999.90;;;21.30;99.90;;;;;;4970870;28;20404;-71
2021/05/29 11:08:44;;;;;;;1999.90;999.90;;;21.30;99.90;;;;;;4970688;28;20445;-72
2021/05/29 11:14:17;;;;;;;1999.90;999.90;;;21.30;99.90;;;;;;4975160;28;20555;-72
2021/05/29 11:16:45;;;;;;;1999.90;999.90;;;21.90;99.90;;;;;;4974642;28;20913;-72
2021/05/29 11:19:17;;;;;;;1999.90;999.90;;;21.90;99.90;;;;;;4974121;28;20429;-72
2021/05/29 11:22:04;;;;;;;1999.90;999.90;;;21.50;99.90;;;;;;4974799;28;20413;-72
2021/05/29 11:24:33;;;;;;;1999.90;999.90;;;21.30;99.90;;;;;;4974345;28;20419;-72
2021/05/29 11:26:59;;;;;;;1999.90;999.90;;;21.60;99.90;;;;;;4974451;28;20411;-72
2021/05/29 11:29:24;;;;;;;1999.90;999.90;;;22.00;99.90;;;;;;4974639;28;20936;-72
2021/05/29 11:31:51;;;;;;;1999.90;999.90;;;22.40;99.90;;;;;;4974077;28;20507;-72
2021/05/29 11:34:17;;;;;;;1999.90;999.90;;;22.80;99.90;;;;;;4974290;28;20204;-72
2021/05/29 11:36:44;;;;;;;1999.90;999.90;;;23.20;99.90;;;;;;4973763;28;20412;-72
2021/05/29 11:39:12;;;;;;;1999.90;999.90;;;23.60;99.90;;;;;;4974322;28;20441;-72
2021/05/29 11:41:38;;;;;;;1999.90;999.90;;;23.10;99.90;;;;;;4974640;28;21211;-72
2021/05/29 11:44:06;;;;;;;1999.90;999.90;;;23.00;99.90;;;;;;4974408;28;20423;-72
2021/05/29 11:46:32;;;;;;;1999.90;999.90;;;23.10;99.90;;;;;;4973894;28;20403;-72
2021/05/29 11:49:04;;;;;;;1999.90;999.90;;;23.30;99.90;;;;;;4973796;28;20929;-73
2021/05/29 11:51:36;;;;;;;1999.90;999.90;;;23.50;99.90;;;;;;4974385;28;20436;-72
2021/05/29 11:54:15;;;;;;;1999.90;999.90;;;23.50;99.90;;;;;;4974094;28;20438;-72
2021/05/29 11:56:46;;;;;;;1999.90;999.90;;;23.20;99.90;;;;;;4976717;28;20412;-73
2021/05/29 11:59:22;;;;;;;1999.90;999.90;;;23.20;99.90;;;;;;4993890;28;21005;-72
2021/05/29 12:01:51;;;;;;;1999.90;999.90;;;23.30;99.90;;;;;;4993173;28;20385;-72
2021/05/29 12:04:21;;;;;;;1999.90;999.90;;;23.80;99.90;;;;;;4993439;28;20398;-72
2021/05/29 12:06:54;;;;;;;1999.90;999.90;;;24.40;99.90;;;;;;4992779;28;20494;-72
2021/05/29 12:09:28;;;;;;;1999.90;999.90;;;24.60;99.90;;;;;;4992820;28;20479;-72
2021/05/29 12:12:22;;;;;;;1999.90;999.90;;;24.50;99.90;;;;;;4993459;28;20407;-72
2021/05/29 12:14:49;;;;;;;1999.90;999.90;;;24.80;99.90;;;;;;4991412;28;20529;-72
2021/05/29 12:17:16;;;;;;;1999.90;999.90;;;25.70;97.50;;;;;;4992762;28;21064;-72